createdAt,value
2018-12-15T00:03:07.223Z,1.048584
2018-12-15T00:06:35.113Z,1.048584
2018-12-15T00:10:02.982Z,1.018372
2018-12-15T00:13:31.858Z,1.018372
2018-12-15T00:17:05.524Z,0.978088
2018-12-15T00:20:30.652Z,0.937805
2018-12-15T00:23:58.538Z,0.937805
2018-12-15T00:27:26.422Z,0.917664
2018-12-15T00:30:54.304Z,0.957947
2018-12-15T00:34:22.174Z,0.917664
2018-12-15T00:37:50.053Z,0.917664
2018-12-15T00:41:17.939Z,0.937805
2018-12-15T00:44:45.809Z,0.917664
2018-12-15T00:48:13.695Z,0.907593
2018-12-15T00:51:41.574Z,0.907593
2018-12-15T00:55:09.456Z,0.87738
2018-12-15T00:58:37.330Z,0.87738
2018-12-15T01:02:05.214Z,0.897522
2018-12-15T01:05:33.090Z,0.86731
2018-12-15T01:09:00.952Z,0.87738
2018-12-15T01:12:28.841Z,0.86731
2018-12-15T01:15:56.724Z,0.816956
2018-12-15T01:19:24.612Z,0.806885
2018-12-15T01:22:52.481Z,0.806885
2018-12-15T01:26:20.361Z,0.776672
2018-12-15T01:29:48.253Z,0.776672
2018-12-15T01:33:16.113Z,0.806885
2018-12-15T01:36:43.994Z,0.756531
2018-12-15T01:40:11.878Z,0.776672
2018-12-15T01:43:39.757Z,0.756531
2018-12-15T01:47:07.643Z,0.756531
2018-12-15T01:50:35.516Z,0.776672
2018-12-15T01:54:03.398Z,0.696106
2018-12-15T01:57:31.264Z,0.726318
2018-12-15T02:00:59.145Z,0.726318
2018-12-15T02:04:28.021Z,0.686035
2018-12-15T02:07:55.888Z,0.756531
2018-12-15T02:11:23.779Z,0.756531
2018-12-15T02:14:51.655Z,0.716248
2018-12-15T02:18:19.522Z,0.696106
2018-12-15T02:21:47.400Z,0.726318
2018-12-15T02:25:15.280Z,0.776672
2018-12-15T02:28:43.152Z,0.756531
2018-12-15T02:32:11.044Z,0.726318
2018-12-15T02:35:38.925Z,0.776672
2018-12-15T02:39:06.828Z,0.806885
2018-12-15T02:42:34.691Z,0.796814
2018-12-15T02:46:02.573Z,0.796814
2018-12-15T02:49:30.458Z,0.776672
2018-12-15T02:52:58.329Z,0.796814
2018-12-15T02:56:26.215Z,0.796814
2018-12-15T02:59:54.089Z,0.816956
2018-12-15T03:03:22.954Z,0.847168
2018-12-15T03:06:50.830Z,0.837097
2018-12-15T03:10:18.708Z,0.837097
2018-12-15T03:13:46.577Z,0.837097
2018-12-15T03:17:14.462Z,0.847168
2018-12-15T03:20:42.342Z,0.87738
2018-12-15T03:24:10.212Z,0.897522
2018-12-15T03:27:38.099Z,0.907593
2018-12-15T03:31:05.983Z,0.87738
2018-12-15T03:34:33.842Z,0.907593
2018-12-15T03:38:01.724Z,0.917664
2018-12-15T03:41:30.650Z,0.957947
2018-12-15T03:44:58.536Z,0.917664
2018-12-15T03:48:26.399Z,0.957947
2018-12-15T03:51:54.287Z,0.957947
2018-12-15T03:55:22.161Z,0.978088
2018-12-15T03:58:50.019Z,0.957947
2018-12-15T04:02:17.904Z,0.978088
2018-12-15T04:05:45.786Z,0.957947
2018-12-15T04:09:13.646Z,0.957947
2018-12-15T04:12:41.533Z,0.978088
2018-12-15T04:16:09.410Z,0.937805
2018-12-15T04:19:37.276Z,0.917664
2018-12-15T04:23:05.174Z,0.87738
2018-12-15T04:26:33.113Z,0.937805
2018-12-15T04:30:00.988Z,0.907593
2018-12-15T04:33:28.854Z,0.897522
2018-12-15T04:36:56.749Z,0.897522
2018-12-15T04:40:24.618Z,0.907593
2018-12-15T04:43:53.475Z,0.917664
2018-12-15T04:47:21.360Z,0.907593
2018-12-15T04:50:50.219Z,0.907593
2018-12-15T04:54:18.085Z,0.87738
2018-12-15T04:57:45.965Z,0.897522
2018-12-15T05:01:13.847Z,0.897522
2018-12-15T05:04:42.703Z,0.87738
2018-12-15T05:08:10.593Z,0.87738
2018-12-15T05:11:38.484Z,0.837097
2018-12-15T05:15:06.366Z,0.816956
2018-12-15T05:18:34.232Z,0.806885
2018-12-15T05:22:02.116Z,0.847168
2018-12-15T05:25:29.997Z,0.847168
2018-12-15T05:28:57.867Z,0.86731
2018-12-15T05:32:25.751Z,0.847168
2018-12-15T05:35:53.636Z,0.847168
2018-12-15T05:39:21.495Z,0.816956
2018-12-15T05:42:49.377Z,0.806885
2018-12-15T05:46:17.263Z,0.806885
2018-12-15T05:49:45.163Z,0.796814
2018-12-15T05:53:13.027Z,0.776672
2018-12-15T05:56:40.907Z,0.776672
2018-12-15T06:00:08.786Z,0.776672
2018-12-15T06:03:36.649Z,0.776672
2018-12-15T06:07:05.523Z,0.736389
2018-12-15T06:10:33.413Z,0.756531
2018-12-15T06:14:01.298Z,0.736389
2018-12-15T06:17:29.171Z,0.736389
2018-12-15T06:20:57.047Z,0.716248
2018-12-15T06:24:24.926Z,0.716248
2018-12-15T06:27:52.796Z,0.696106
2018-12-15T06:31:20.684Z,0.716248
2018-12-15T06:34:48.558Z,0.696106
2018-12-15T06:38:16.429Z,0.696106
2018-12-15T06:41:44.311Z,0.655823
2018-12-15T06:45:12.187Z,0.655823
2018-12-15T06:48:40.049Z,0.665894
2018-12-15T06:52:07.926Z,0.635681
2018-12-15T06:55:35.808Z,0.595398
2018-12-15T06:59:03.667Z,0.62561
2018-12-15T07:02:31.549Z,0.655823
2018-12-15T07:05:59.428Z,0.635681
2018-12-15T07:09:27.313Z,0.62561
2018-12-15T07:12:55.179Z,0.61554
2018-12-15T07:16:23.068Z,0.62561
2018-12-15T07:19:50.980Z,0.635681
2018-12-15T07:23:19.867Z,0.716248
2018-12-15T07:26:47.754Z,0.696106
2018-12-15T07:30:15.631Z,0.716248
2018-12-15T07:33:43.520Z,0.716248
2018-12-15T07:37:12.402Z,0.716248
2018-12-15T07:40:40.286Z,0.756531
2018-12-15T07:44:08.156Z,0.806885
2018-12-15T07:47:37.100Z,0.837097
2018-12-15T07:51:07.006Z,0.776672
2018-12-15T07:54:34.832Z,0.756531
2018-12-15T07:58:02.723Z,0.776672
2018-12-15T08:01:30.660Z,0.776672
2018-12-15T08:04:58.565Z,0.776672
2018-12-15T08:08:26.451Z,0.806885
2018-12-15T08:11:54.339Z,0.837097
2018-12-15T08:15:22.255Z,0.816956
2018-12-15T08:18:50.143Z,0.837097
2018-12-15T08:22:26.019Z,0.847168
2018-12-15T08:25:51.854Z,0.837097
2018-12-15T08:29:19.712Z,0.837097
2018-12-15T08:32:47.600Z,0.87738
2018-12-15T08:36:15.477Z,0.917664
2018-12-15T08:39:43.352Z,0.99823
2018-12-15T08:43:11.232Z,0.978088
2018-12-15T08:46:39.119Z,1.058655
2018-12-15T08:50:06.992Z,1.078796
2018-12-15T08:53:34.909Z,1.058655
2018-12-15T08:57:02.842Z,1.088867
2018-12-15T09:00:30.899Z,1.088867
2018-12-15T09:03:59.098Z,1.098938
2018-12-15T09:07:28.086Z,1.199646
2018-12-15T09:10:55.965Z,1.199646
2018-12-15T09:14:24.830Z,1.270142
2018-12-15T09:17:52.716Z,1.340637
2018-12-15T09:21:20.595Z,1.310425
2018-12-15T09:24:48.461Z,1.350708
2018-12-15T09:28:17.334Z,1.421204
2018-12-15T09:31:45.222Z,1.441345
2018-12-15T09:35:13.098Z,1.481628
2018-12-15T09:38:40.968Z,1.531982
2018-12-15T09:42:08.850Z,1.521912
2018-12-15T09:45:36.730Z,1.562195
2018-12-15T09:49:04.601Z,1.602478
2018-12-15T09:52:33.481Z,1.62262
2018-12-15T09:56:01.370Z,1.672974
2018-12-15T09:59:29.299Z,1.713257
2018-12-15T10:02:57.183Z,1.783752
2018-12-15T10:06:25.105Z,1.824036
2018-12-15T10:09:53.187Z,1.924744
2018-12-15T10:13:21.554Z,1.954956
2018-12-15T10:16:49.504Z,1.934814
2018-12-15T10:20:17.416Z,1.934814
2018-12-15T10:23:46.295Z,1.985168
2018-12-15T10:27:14.212Z,1.985168
2018-12-15T10:30:42.127Z,2.025452
2018-12-15T10:34:10.151Z,2.00531
2018-12-15T10:37:38.035Z,2.025452
2018-12-15T10:41:05.957Z,1.995239
2018-12-15T10:44:34.670Z,1.965027
2018-12-15T10:48:03.340Z,1.985168
2018-12-15T10:51:31.343Z,1.985168
2018-12-15T10:54:59.268Z,1.985168
2018-12-15T10:58:28.139Z,2.00531
2018-12-15T11:01:56.033Z,2.065735
2018-12-15T11:05:23.932Z,2.055664
2018-12-15T11:08:51.910Z,2.055664
2018-12-15T11:12:19.831Z,2.00531
2018-12-15T11:15:47.760Z,2.00531
2018-12-15T11:19:15.744Z,1.995239
2018-12-15T11:22:44.678Z,1.995239
2018-12-15T11:26:12.786Z,2.00531
2018-12-15T11:29:42.912Z,1.995239
2018-12-15T11:33:11.869Z,1.954956
2018-12-15T11:36:42.105Z,1.934814
2018-12-15T11:40:10.004Z,1.924744
2018-12-15T11:43:38.812Z,1.934814
2018-12-15T11:47:06.697Z,1.934814
2018-12-15T11:50:34.588Z,1.965027
2018-12-15T11:54:02.507Z,1.965027
2018-12-15T11:57:30.404Z,2.00531
2018-12-15T12:00:58.312Z,2.065735
2018-12-15T12:04:26.327Z,2.116089
2018-12-15T12:07:54.492Z,2.106018
2018-12-15T12:11:22.377Z,2.065735
2018-12-15T12:14:50.275Z,1.985168
2018-12-15T12:18:18.138Z,1.924744
2018-12-15T12:21:46.022Z,1.87439
2018-12-15T12:25:13.905Z,1.813965
2018-12-15T12:28:41.769Z,1.803894
2018-12-15T12:32:09.653Z,1.813965
2018-12-15T12:35:37.534Z,1.813965
2018-12-15T12:39:05.407Z,1.75354
2018-12-15T12:42:33.284Z,1.693115
2018-12-15T12:46:01.175Z,1.63269
2018-12-15T12:49:29.097Z,1.552124
2018-12-15T12:52:56.968Z,1.531982
2018-12-15T12:56:24.852Z,1.521912
2018-12-15T12:59:52.736Z,1.521912
2018-12-15T13:03:20.603Z,1.491699
2018-12-15T13:06:48.485Z,1.521912
2018-12-15T13:10:16.369Z,1.481628
2018-12-15T13:13:44.237Z,1.461487
2018-12-15T13:17:12.132Z,1.451416
2018-12-15T13:20:40.011Z,1.451416
2018-12-15T13:24:07.874Z,1.38092
2018-12-15T13:27:35.757Z,1.390991
2018-12-15T13:31:03.641Z,1.38092
2018-12-15T13:34:31.526Z,1.340637
2018-12-15T13:37:59.402Z,1.310425
2018-12-15T13:41:28.337Z,1.360779
2018-12-15T13:44:56.241Z,1.360779
2018-12-15T13:48:24.110Z,1.350708
2018-12-15T13:51:51.989Z,1.340637
2018-12-15T13:55:19.874Z,1.350708
2018-12-15T13:58:47.744Z,1.310425
2018-12-15T14:02:16.644Z,1.310425
2018-12-15T14:05:46.366Z,1.280212
2018-12-15T14:09:14.403Z,1.280212
2018-12-15T14:12:42.532Z,1.280212
2018-12-15T14:16:11.688Z,1.300354
2018-12-15T14:19:39.981Z,1.340637
2018-12-15T14:23:08.162Z,1.350708
2018-12-15T14:26:36.219Z,1.350708
2018-12-15T14:30:04.466Z,1.340637
2018-12-15T14:33:32.675Z,1.340637
2018-12-15T14:37:00.840Z,1.340637
2018-12-15T14:40:28.735Z,1.350708
2018-12-15T14:43:56.612Z,1.310425
2018-12-15T14:47:24.515Z,1.340637
2018-12-15T14:50:52.501Z,1.300354
2018-12-15T14:54:20.384Z,1.350708
2018-12-15T14:57:48.303Z,1.350708
2018-12-15T15:01:16.203Z,1.390991
2018-12-15T15:04:45.105Z,1.360779
2018-12-15T15:08:12.997Z,1.350708
2018-12-15T15:11:41.355Z,1.310425
2018-12-15T15:15:08.825Z,1.350708
2018-12-15T15:18:36.738Z,1.340637
2018-12-15T15:22:05.662Z,1.340637
2018-12-15T15:25:33.594Z,1.340637
2018-12-15T15:29:01.619Z,1.360779
2018-12-15T15:32:29.506Z,1.310425
2018-12-15T15:35:57.415Z,1.280212
2018-12-15T15:39:25.302Z,1.270142
2018-12-15T15:42:53.178Z,1.229858
2018-12-15T15:46:21.057Z,1.270142
2018-12-15T15:49:49.063Z,1.239929
2018-12-15T15:53:17.925Z,1.179504
2018-12-15T15:56:45.811Z,1.11908
2018-12-15T16:00:14.688Z,1.088867
2018-12-15T16:03:42.558Z,1.048584
2018-12-15T16:07:10.440Z,1.018372
2018-12-15T16:10:38.323Z,0.988159
2018-12-15T16:14:07.180Z,0.917664
2018-12-15T16:17:35.072Z,0.897522
2018-12-15T16:21:02.960Z,0.937805
2018-12-15T16:24:30.827Z,0.917664
2018-12-15T16:27:58.703Z,0.917664
2018-12-15T16:31:26.593Z,0.957947
2018-12-15T16:34:54.463Z,0.907593
2018-12-15T16:38:22.372Z,0.917664
2018-12-15T16:41:50.250Z,0.87738
2018-12-15T16:45:18.144Z,0.897522
2018-12-15T16:48:46.013Z,0.86731
2018-12-15T16:52:13.891Z,0.86731
2018-12-15T16:55:41.779Z,0.87738
2018-12-15T16:59:09.655Z,0.86731
2018-12-15T17:02:37.537Z,0.847168
2018-12-15T17:06:05.419Z,0.796814
2018-12-15T17:09:33.302Z,0.806885
2018-12-15T17:13:01.188Z,0.847168
2018-12-15T17:16:29.080Z,0.837097
2018-12-15T17:19:56.990Z,0.806885
2018-12-15T17:23:25.837Z,0.776672
2018-12-15T17:26:53.726Z,0.736389
2018-12-15T17:30:21.611Z,0.736389
2018-12-15T17:33:49.479Z,0.756531
2018-12-15T17:37:17.363Z,0.756531
2018-12-15T17:40:45.245Z,0.736389
2018-12-15T17:44:13.112Z,0.726318
2018-12-15T17:47:40.999Z,0.776672
2018-12-15T17:51:08.886Z,0.686035
2018-12-15T17:54:36.757Z,0.696106
2018-12-15T17:58:04.632Z,0.696106
2018-12-15T18:01:35.485Z,0.726318
2018-12-15T18:05:03.368Z,0.655823
2018-12-15T18:08:31.241Z,0.665894
2018-12-15T18:11:59.125Z,0.806885
2018-12-15T18:15:27.007Z,0.716248
2018-12-15T18:18:54.872Z,0.716248
2018-12-15T18:22:22.753Z,0.806885
2018-12-15T18:25:50.634Z,0.726318
2018-12-15T18:29:18.501Z,0.837097
2018-12-15T18:32:46.386Z,0.816956
2018-12-15T18:36:15.268Z,0.776672
2018-12-15T18:39:43.191Z,0.776672
2018-12-15T18:43:11.216Z,0.816956
2018-12-15T18:46:39.286Z,0.816956
2018-12-15T18:50:08.403Z,0.776672
2018-12-15T18:53:36.479Z,0.806885
2018-12-15T18:57:04.522Z,0.776672
2018-12-15T19:00:32.837Z,0.796814
2018-12-15T19:04:00.724Z,0.756531
2018-12-15T19:07:28.621Z,0.736389
2018-12-15T19:10:56.571Z,0.756531
2018-12-15T19:14:24.552Z,0.796814
2018-12-15T19:17:52.447Z,0.847168
2018-12-15T19:21:22.993Z,0.837097
2018-12-15T19:24:49.191Z,0.837097
2018-12-15T19:28:17.072Z,0.816956
2018-12-15T19:31:44.957Z,0.756531
2018-12-15T19:35:12.828Z,0.726318
2018-12-15T19:38:40.720Z,0.686035
2018-12-15T19:42:09.592Z,0.716248
2018-12-15T19:45:37.468Z,0.716248
2018-12-15T19:49:06.343Z,0.716248
2018-12-15T19:52:34.226Z,0.736389
2018-12-15T19:56:02.120Z,0.736389
2018-12-15T19:59:29.978Z,0.736389
2018-12-15T20:02:57.863Z,0.736389
2018-12-15T20:06:26.740Z,0.726318
2018-12-15T20:09:54.604Z,0.696106
2018-12-15T20:13:22.491Z,0.635681
2018-12-15T20:16:50.385Z,0.585327
2018-12-15T20:20:18.254Z,0.655823
2018-12-15T20:23:46.149Z,0.655823
2018-12-15T20:27:14.074Z,0.655823
2018-12-15T20:30:44.091Z,0.716248
2018-12-15T20:34:11.970Z,0.736389
2018-12-15T20:37:39.918Z,0.796814
2018-12-15T20:41:07.866Z,0.816956
2018-12-15T20:44:41.506Z,0.837097
2018-12-15T20:48:07.228Z,0.837097
2018-12-15T20:51:35.113Z,0.86731
2018-12-15T20:55:05.951Z,0.907593
2018-12-15T20:58:33.850Z,0.917664
2018-12-15T21:02:01.730Z,0.957947
2018-12-15T21:05:29.615Z,0.978088
2018-12-15T21:09:01.364Z,0.988159
2018-12-15T21:12:29.500Z,0.99823
2018-12-15T21:15:57.409Z,1.048584
2018-12-15T21:19:25.304Z,1.048584
2018-12-15T21:22:53.863Z,1.048584
2018-12-15T21:26:21.772Z,0.988159
2018-12-15T21:29:50.434Z,0.87738
2018-12-15T21:33:18.642Z,0.86731
2018-12-15T21:36:46.564Z,0.86731
2018-12-15T21:40:14.507Z,0.847168
2018-12-15T21:43:42.406Z,0.837097
2018-12-15T21:47:11.309Z,0.847168
2018-12-15T21:50:39.276Z,0.806885
2018-12-15T21:54:07.661Z,0.806885
2018-12-15T21:57:36.015Z,0.806885
2018-12-15T22:01:04.388Z,0.837097
2018-12-15T22:04:33.308Z,0.847168
2018-12-15T22:08:01.607Z,0.897522
2018-12-15T22:11:29.933Z,0.907593
2018-12-15T22:14:59.002Z,0.847168
2018-12-15T22:18:27.355Z,0.837097
2018-12-15T22:21:55.809Z,0.837097
2018-12-15T22:25:28.070Z,0.816956
2018-12-15T22:28:56.556Z,0.806885
2018-12-15T22:32:25.815Z,0.796814
2018-12-15T22:35:54.187Z,0.816956
2018-12-15T22:39:23.595Z,0.837097
2018-12-15T22:42:52.892Z,0.837097
2018-12-15T22:46:20.854Z,0.87738
2018-12-15T22:49:49.249Z,0.917664
2018-12-15T22:53:17.532Z,0.957947
2018-12-15T22:56:45.883Z,0.978088
2018-12-15T23:00:13.751Z,0.978088
2018-12-15T23:03:41.632Z,0.978088
2018-12-15T23:07:09.510Z,0.988159
2018-12-15T23:10:37.375Z,0.978088
2018-12-15T23:14:05.257Z,0.957947
2018-12-15T23:17:33.139Z,0.957947
2018-12-15T23:21:01.008Z,0.917664
2018-12-15T23:24:28.890Z,0.917664
2018-12-15T23:27:56.781Z,0.917664
2018-12-15T23:31:24.648Z,0.937805
2018-12-15T23:34:52.532Z,0.978088
2018-12-15T23:38:20.415Z,0.988159
2018-12-15T23:41:48.277Z,0.978088
2018-12-15T23:45:16.175Z,0.978088
2018-12-15T23:48:44.057Z,0.988159
2018-12-15T23:52:11.937Z,0.937805
2018-12-15T23:55:42.781Z,0.978088
2018-12-15T23:59:10.669Z,0.978088
